Terminal Aerodrome Forecast
Issued by NWS

Home | Current Version | Previous Version | Text Only | Print | Product List | Glossary On
Versions: 1 2 3 4 5 6 7 8 9 10 11 12 13 14 15 16 17 18
000
FTUS44 KHGX 240520
TAFCXO
TAF
KCXO 240520Z 2406/2506 19009KT P6SM FEW020 SCT250
     FM240900 23003KT P6SM FEW025 BKN250
     FM241300 20006KT P6SM BKN025
     FM241600 21011KT P6SM SCT035
     FM241900 20011KT P6SM FEW050 SCT150
     FM242200 18008KT P6SM SCT045 BKN250=

USA.gov is the U.S. government's official web portal to all federal, state and local government web resources and services.